Latest Weather Observations for Warwick

IDQ60801

Issued at 9:51 am EST Wednesday 16 January 2019 (issued every 10 minutes, with the page automatically refreshed every 10 minutes)

About weather observations | Map of weather stations | Latest weather observations for QLD | Other Formats
Station Details ID: 041525 Name: WARWICK Lat: -28.21 Lon: 152.10 Height: 475.4 m
Data from the previous 72 hours. | See also: Recent months at Warwick
Date/Time
EST
Temp
°C
App
Temp
°C
Dew
Point
°C
Rel
Hum
%
Delta-T
°C
Wind Press
QNH
hPa
Press
MSL
hPa
Rain since
9am
mm
Dir  Spd
km/h
Gust
km/h
Spd
kts
Gust
kts
16/09:30am 27.4 28.0 16.8 52 6.7 NE 9 17 5 9 1015.8 1013.1 0.0
16/09:00am 26.5 26.6 16.5 54 6.3 NE 11 15 6 8 1015.9 1013.2 0.0
16/08:30am 25.1 25.7 16.7 59 5.3 ENE 9 15 5 8 1016.0 1013.3 0.0
16/08:00am 24.3 24.3 16.3 61 5.0 ENE 11 19 6 10 1016.1 1013.4 0.0
16/07:30am 23.5 23.5 16.2 63 4.5 ENE 11 19 6 10 1016.3 1013.6 0.0
16/07:00am 22.5 22.2 16.4 68 3.8 NE 13 17 7 9 1016.0 1013.3 0.0
16/06:30am 21.1 23.4 16.7 76 2.7 CALM 0 0 0 0 1015.9 1013.2 0.0
16/06:00am 19.0 20.5 16.6 86 1.5 NE 4 7 2 4 1015.6 1012.9 0.0
16/05:30am 18.3 20.1 15.5 84 1.7 CALM 0 0 0 0 1015.2 1012.5 0.0
16/05:00am 18.6 20.7 16.3 86 1.4 CALM 0 2 0 1 1014.7 1012.0 0.0
16/04:30am 18.9 19.6 16.1 84 1.7 NW 7 9 4 5 1014.4 1011.7 0.0
16/04:00am 19.1 20.8 16.3 84 1.7 WNW 2 9 1 5 1014.3 1011.6 0.0
16/03:30am 18.9 21.1 16.4 85 1.5 CALM 0 0 0 0 1013.9 1011.2 0.0
16/03:00am 19.2 20.7 16.6 85 1.6 WNW 4 9 2 5 1013.8 1011.1 0.0
16/02:30am 19.4 21.7 16.8 85 1.6 CALM 0 0 0 0 1013.9 1011.2 0.0
16/02:00am 19.5 21.7 16.4 82 1.9 CALM 0 0 0 0 1014.0 1011.3 0.0
16/01:30am 19.7 21.8 16.3 81 2.1 CALM 0 0 0 0 1014.3 1011.6 0.0
16/01:00am 20.1 21.6 15.8 76 2.6 ENE 2 7 1 4 1014.4 1011.7 0.0
16/12:30am 20.4 21.3 16.0 76 2.7 NNE 6 7 3 4 1014.8 1012.2 0.0
16/12:00am 20.5 21.3 16.3 77 2.6 ENE 7 11 4 6 1015.3 1012.6 0.0
 
Date/Time
EST
Temp
°C
App
Temp
°C
Dew
Point
°C
Rel
Hum
%
Delta-T
°C
Wind Press
QNH
hPa
Press
MSL
hPa
Rain since
9am
mm
Dir  Spd
km/h
Gust
km/h
Spd
kts
Gust
kts
15/11:30pm 21.7 22.6 16.5 72 3.2 ENE 7 11 4 6 1015.6 1012.9 0.0
15/11:00pm 22.3 22.1 16.7 70 3.5 ENE 13 20 7 11 1015.7 1013.0 0.0
15/10:30pm 22.6 22.0 16.7 69 3.7 ENE 15 20 8 11 1015.8 1013.1 0.0
15/10:00pm 23.2 23.3 16.4 65 4.2 ENE 11 19 6 10 1015.7 1013.0 0.0
15/09:30pm 23.8 24.0 16.8 65 4.4 ENE 11 15 6 8 1015.6 1012.9 0.0
15/09:00pm 24.6 24.9 17.0 62 4.8 ENE 11 17 6 9 1015.4 1012.7 0.0
15/08:30pm 25.3 23.9 17.1 60 5.2 NE 20 30 11 16 1015.1 1012.4 0.0
15/08:00pm 26.1 24.3 16.9 57 5.8 NNE 22 30 12 16 1014.7 1012.0 0.0
15/07:30pm 27.0 24.8 16.9 54 6.4 NNE 24 30 13 16 1014.4 1011.7 0.0
15/07:00pm 28.0 25.0 16.7 50 7.2 NE 28 35 15 19 1013.9 1011.2 0.0
15/06:30pm 29.5 26.2 16.1 44 8.5 NE 28 35 15 19 1013.6 1010.9 0.0
15/06:00pm 32.3 29.8 13.6 32 11.5 ENE 19 28 10 15 1012.9 1010.1 0.0
15/05:30pm 33.4 31.1 14.6 32 11.8 NE 20 30 11 16 1012.5 1009.8 0.0
15/05:00pm 34.9 33.4 13.0 26 13.5 ENE 13 20 7 11 1012.2 1009.5 0.0
15/04:30pm 35.5 33.5 11.5 23 14.5 ESE 13 26 7 14 1012.0 1009.3 0.0
15/04:00pm 35.1 32.8 11.6 24 14.2 ESE 15 24 8 13 1012.1 1009.4 0.0
15/03:30pm 35.7 33.6 11.1 22 14.8 ESE 13 22 7 12 1012.4 1009.7 0.0
15/03:00pm 35.1 33.9 11.6 24 14.2 ESE 9 20 5 11 1012.8 1010.0 0.0
15/02:30pm 33.9 32.9 12.4 27 13.1 SSE 9 20 5 11 1013.4 1010.7 0.0
15/02:00pm 34.4 33.4 12.4 26 13.4 SSW 9 17 5 9 1013.9 1011.2 0.0
15/01:30pm 33.5 31.6 11.7 26 13.1 SW 13 28 7 15 1014.3 1011.6 0.0
15/01:00pm 32.9 30.8 12.5 29 12.4 NE 15 22 8 12 1014.8 1012.2 0.0
15/12:30pm 32.7 33.1 13.8 31 11.7 NE 4 15 2 8 1015.3 1012.6 0.0
15/12:00pm 31.3 30.4 12.6 31 11.3 WNW 9 15 5 8 1015.8 1013.1 0.0
15/11:30am 31.3 29.7 12.8 32 11.2 WSW 13 19 7 10 1016.3 1013.6 0.0
15/11:00am 30.1 29.9 13.1 35 10.3 ESE 6 11 3 6 1016.9 1014.3 0.0
15/10:30am 29.0 28.6 14.1 40 9.1 W 9 17 5 9 1017.5 1014.8 0.0
15/10:00am 27.8 28.0 14.6 44 8.1 NNE 7 13 4 7 1017.8 1015.1 0.0
15/09:30am 26.8 27.3 14.9 48 7.3 ENE 6 9 3 5 1018.2 1015.5 0.0
15/09:00am 25.5 25.9 15.3 53 6.3 E 7 15 4 8 1018.3 1015.6 0.0
15/08:30am 24.2 25.2 16.3 61 4.9 S 6 13 3 7 1018.4 1015.7 0.0
15/08:00am 24.1 25.2 16.6 63 4.7 S 6 9 3 5 1018.4 1015.7 0.0
15/07:30am 22.5 23.9 16.5 69 3.7 SSE 4 9 2 5 1018.5 1015.8 0.0
15/07:00am 21.6 23.8 16.6 73 3.1 CALM 0 0 0 0 1018.5 1015.8 0.0
15/06:30am 19.9 21.9 16.1 79 2.3 CALM 0 6 0 3 1018.4 1015.7 0.0
15/06:00am 18.5 19.3 16.4 87 1.3 NNE 7 9 4 5 1018.2 1015.5 0.0
15/05:30am 17.3 17.9 15.8 91 0.9 NE 7 9 4 5 1017.8 1015.1 0.0
15/05:00am 17.6 18.2 15.8 89 1.1 NNE 7 9 4 5 1017.4 1014.7 0.0
15/04:30am 17.4 19.3 15.7 90 1.0 CALM 0 0 0 0 1017.1 1014.5 0.0
15/04:00am 17.8 19.8 16.0 89 1.1 CALM 0 0 0 0 1017.0 1014.4 0.0
15/03:30am 18.0 20.0 16.0 88 1.2 CALM 0 0 0 0 1016.9 1014.3 0.0
15/03:00am 17.8 19.6 15.6 87 1.3 CALM 0 0 0 0 1016.9 1014.3 0.0
15/02:30am 17.9 19.7 15.6 86 1.4 CALM 0 0 0 0 1016.9 1014.3 0.0
15/02:00am 17.9 19.9 16.1 89 1.1 CALM 0 0 0 0 1017.0 1014.4 0.0
15/01:30am 18.7 20.3 15.9 84 1.7 NE 2 6 1 3 1017.1 1014.5 0.0
15/01:00am 19.4 21.6 16.5 83 1.8 CALM 0 0 0 0 1017.6 1014.9 0.0
15/12:30am 19.8 20.8 16.4 81 2.1 ENE 6 9 3 5 1017.7 1015.0 0.0
15/12:00am 20.1 20.1 16.3 79 2.3 NE 11 13 6 7 1017.7 1015.0 0.0
 
Date/Time
EST
Temp
°C
App
Temp
°C
Dew
Point
°C
Rel
Hum
%
Delta-T
°C
Wind Press
QNH
hPa
Press
MSL
hPa
Rain since
9am
mm
Dir  Spd
km/h
Gust
km/h
Spd
kts
Gust
kts
14/11:30pm 20.9 20.2 16.3 75 2.8 NE 15 19 8 10 1017.9 1015.2 0.0
14/11:00pm 21.1 20.5 16.6 75 2.8 NE 15 19 8 10 1018.0 1015.3 0.0
14/10:30pm 21.5 20.2 16.7 74 3.0 NE 19 22 10 12 1018.0 1015.3 0.0
14/10:00pm 21.9 20.5 16.6 72 3.3 NE 19 22 10 12 1018.1 1015.4 0.0
14/09:30pm 22.5 20.9 16.4 68 3.8 NE 20 28 11 15 1018.2 1015.5 0.0
14/09:00pm 23.2 21.1 16.1 64 4.4 NE 22 28 12 15 1018.1 1015.4 0.0
14/08:30pm 24.0 22.1 15.7 59 5.1 NE 20 28 11 15 1017.9 1015.2 0.0
14/08:00pm 24.7 22.8 15.2 55 5.8 NE 19 24 10 13 1017.5 1014.8 0.0
14/07:30pm 25.7 23.3 15.3 52 6.4 NE 22 30 12 16 1017.0 1014.4 0.0
14/07:00pm 26.8 23.9 15.1 48 7.2 NE 24 33 13 18 1016.6 1013.9 0.0
14/06:30pm 28.2 24.3 14.3 42 8.5 NE 28 33 15 18 1016.1 1013.4 0.0
14/06:00pm 29.9 26.1 13.5 36 10.0 NE 26 35 14 19 1015.5 1012.8 0.0
14/05:30pm 31.8 28.6 11.2 28 12.2 NE 19 26 10 14 1015.1 1012.4 0.0
14/05:00pm 32.1 30.3 10.7 27 12.6 ENE 11 20 6 11 1014.8 1012.2 0.0
14/04:30pm 32.5 28.9 10.6 26 12.9 ENE 20 32 11 17 1014.8 1012.2 0.0
14/04:00pm 31.8 28.0 9.7 25 12.8 NE 20 30 11 16 1014.8 1012.2 0.0
14/03:30pm 32.6 29.1 10.2 25 13.1 ENE 19 35 10 19 1014.9 1012.3 0.0
14/03:00pm 32.7 29.0 10.1 25 13.2 ENE 20 37 11 20 1015.2 1012.5 0.0
14/02:30pm 32.0 28.3 10.0 25 12.8 ENE 20 32 11 17 1015.6 1012.9 0.0
14/02:00pm 32.5 29.7 11.3 27 12.6 NE 17 28 9 15 1015.9 1013.2 0.0
14/01:30pm 31.9 29.0 11.1 28 12.3 E 17 30 9 16 1016.3 1013.6 0.0
14/01:00pm 32.1 29.6 12.4 30 11.9 SE 17 24 9 13 1016.5 1013.8 0.0
14/12:30pm 31.4 30.6 13.0 32 11.2 W 9 20 5 11 1016.8 1014.2 0.0
14/12:00pm 30.1 27.5 11.9 32 10.8 ENE 17 28 9 15 1017.3 1014.6 0.0
14/11:30am 29.6 26.8 11.4 32 10.7 NE 17 24 9 13 1017.7 1015.0 0.0
14/11:00am 29.3 28.0 12.4 35 10.1 ESE 11 20 6 11 1018.3 1015.6 0.0
14/10:30am 28.0 26.5 13.0 39 9.0 SE 13 24 7 13 1018.6 1016.0 0.0
14/10:00am 26.6 24.2 12.8 42 8.2 SE 17 28 9 15 1018.9 1016.3 0.0
14/09:30am 26.2 24.6 12.7 43 8.0 SE 13 22 7 12 1019.2 1016.6 0.0
14/09:00am 25.6 23.8 13.2 46 7.4 SE 15 24 8 13 1019.5 1016.8 0.0
14/08:30am 24.9 23.1 13.3 48 6.9 ESE 15 26 8 14 1019.6 1016.9 0.0
14/08:00am 23.7 21.9 13.2 51 6.2 ESE 15 28 8 15 1019.6 1016.9 0.0
14/07:30am 22.2 20.6 13.8 59 5.0 SE 15 26 8 14 1019.6 1016.9 0.0
14/07:00am 22.1 20.5 13.8 59 4.9 ESE 15 26 8 14 1019.6 1016.9 0.0
14/06:30am 20.5 20.0 14.8 70 3.4 SSE 11 17 6 9 1019.3 1016.7 0.0
14/06:00am 18.8 18.4 14.0 73 2.8 SE 9 15 5 8 1019.1 1016.5 0.0
14/05:30am 17.9 17.3 13.4 75 2.6 SE 9 11 5 6 1018.8 1016.2 0.0
14/05:00am 17.9 17.3 13.4 75 2.6 SSE 9 13 5 7 1018.4 1015.7 0.0
14/04:30am 17.4 17.3 13.4 77 2.3 ESE 6 13 3 7 1018.0 1015.3 0.0
14/04:00am 17.8 17.5 13.3 75 2.6 ESE 7 13 4 7 1017.9 1015.2 0.0
14/03:30am 18.3 17.5 12.9 71 3.1 E 9 13 5 7 1017.8 1015.1 0.0
14/03:00am 17.4 16.2 12.8 74 2.6 NE 11 13 6 7 1017.7 1015.0 0.0
14/02:30am 17.7 16.9 12.8 73 2.8 ENE 9 15 5 8 1017.7 1015.0 0.0
14/02:00am 17.8 16.2 12.9 73 2.8 E 13 17 7 9 1017.9 1015.2 0.0
14/01:30am 18.3 18.0 13.3 72 2.9 E 7 11 4 6 1018.2 1015.5 0.0
14/01:00am 18.6 17.9 13.2 71 3.1 ESE 9 15 5 8 1018.7 1016.1 0.0
14/12:30am 19.1 18.0 13.0 67 3.5 E 11 19 6 10 1019.1 1016.5 0.0
14/12:00am 18.8 18.2 13.6 72 3.0 ESE 9 17 5 9 1019.5 1016.8 0.0
 
Date/Time
EST
Temp
°C
App
Temp
°C
Dew
Point
°C
Rel
Hum
%
Delta-T
°C
Wind Press
QNH
hPa
Press
MSL
hPa
Rain since
9am
mm
Dir  Spd
km/h
Gust
km/h
Spd
kts
Gust
kts
13/11:30pm 19.6 18.1 14.2 71 3.2 SE 15 24 8 13 1019.7 1017.0 0.0
13/11:00pm 20.0 18.3 13.7 67 3.7 SE 15 22 8 12 1019.7 1017.0 0.0
13/10:30pm 20.7 18.8 13.1 61 4.4 SE 15 26 8 14 1019.6 1016.9 0.0
13/10:00pm 21.4 19.2 12.2 55 5.3 SE 15 24 8 13 1019.5 1016.8 0.0
13/09:30pm 21.2 20.0 11.5 54 5.5 E 9 13 5 7 1019.6 1016.9 0.0
13/09:00pm 22.1 21.2 12.6 55 5.5 ESE 9 15 5 8 1019.5 1016.8 0.0
13/08:30pm 23.0 22.5 13.7 55 5.5 SE 9 17 5 9 1019.2 1016.6 0.0
13/08:00pm 24.0 22.5 13.0 50 6.5 SE 13 24 7 13 1018.7 1016.1 0.0
13/07:30pm 25.3 23.5 12.1 43 7.7 SE 13 28 7 15 1018.2 1015.5 0.0
13/07:00pm 26.7 24.2 11.1 37 9.0 SE 15 22 8 12 1017.7 1015.0 0.0
13/06:30pm 28.3 25.5 12.5 37 9.4 SE 19 30 10 16 1017.0 1014.4 0.0
13/06:00pm 29.6 26.2 12.4 34 10.3 SE 22 35 12 19 1016.5 1013.8 0.0
13/05:30pm 30.9 27.9 12.0 31 11.3 SE 19 30 10 16 1016.1 1013.4 0.0
13/05:00pm 31.3 28.1 11.9 30 11.6 SE 20 30 11 16 1015.8 1013.1 0.0
13/04:30pm 32.1 29.2 12.4 30 11.9 SE 19 35 10 19 1015.5 1012.8 0.0
13/04:00pm 32.2 28.9 11.6 28 12.3 SE 20 35 11 19 1015.3 1012.6 0.0
13/03:30pm 32.8 29.7 12.3 28 12.4 SE 20 37 11 20 1015.3 1012.6 0.0
13/03:00pm 33.1 30.6 12.3 28 12.6 ESE 17 28 9 15 1015.5 1012.8 0.0
13/02:30pm 32.8 29.6 12.0 28 12.5 SE 20 37 11 20 1015.8 1013.1 0.0
13/02:00pm 32.1 30.0 12.4 30 11.9 SE 15 26 8 14 1016.0 1013.3 0.0
13/01:30pm 31.3 29.3 12.8 32 11.2 SE 15 26 8 14 1016.2 1013.5 0.0
13/01:00pm 31.3 28.7 12.1 30 11.5 ESE 17 32 9 17 1016.5 1013.8 0.0
13/12:30pm 31.4 28.8 12.0 30 11.6 SSE 17 24 9 13 1016.9 1014.3 0.0
13/12:00pm 31.5 29.0 12.2 30 11.6 SSE 17 30 9 16 1017.4 1014.7 0.0
13/11:30am 30.1 27.4 11.7 32 10.9 ENE 17 28 9 15 1017.8 1015.1 0.0
13/11:00am 28.9 28.0 12.7 36 9.7 NE 9 20 5 11 1018.1 1015.4 0.0
13/10:30am 28.7 27.0 12.6 37 9.6 S 13 24 7 13 1018.4 1015.7 0.0
13/10:00am 26.9 26.2 14.4 46 7.6 SSE 11 22 6 12 1018.8 1016.2 0.0

Other Formats:

Comma delimited format used in spreadsheet applications
http://www.bom.gov.au/fwo/IDQ60801/IDQ60801.94555.axf

JavaScript Object Notation format (JSON) in row-major order
http://www.bom.gov.au/fwo/IDQ60801/IDQ60801.94555.json